Puerto Banus, Marbella

>

This is an optional block (switch it off / on) in the settings - file ($SITE['banners'] = false;)

You can display ads, any other important text or photo’s using text / html or PHP code.

You can place one or more at the top and or bottom and it can all be different for content / size .



Meteosat more information blitzortung!


Radar lluvias  rain snow radar


Visita nuestra red de sitios de meteo:

Documentation for the template used

MeteoibericaRed estaciones Meteorologicas

MeteoclimaticRed estaciones Meteorologicas



Sin Advertencias climatologicas .En este momento tenemos Nivel Verde.    No hay Alarmas

Informes METAR proximidad

   
EBAW - Antwerp
Actualización: 20-11-2018 20:20
Parcialmente nublado  
Parcialmente nublado  
   Viento: East 13 km/h
Viento: East 13 km/h
Temperatura: 4°C
Térmica: 1°C
Punto de rocío: -1°C
Humedad: 70%
Baromètro: 1006 hPa
Nublado: Parcialmente nublado
Visibilidad: More than 10 km
detalles de la nube: Parcialmente nublado 3600 ft
EBAW 201920Z 08007KT 9999 BKN036 04/M01 Q1006 NOSIG
EBLG - Liège
Actualización: 20-11-2018 20:20
Parcialmente nublado  
Parcialmente nublado  
   Viento: ESE 14.8 km/h
Viento: ESE 14.8 km/h
Temperatura: 3°C
Térmica: -1°C
Punto de rocío: -2°C
Humedad: 70%
Baromètro: 1005 hPa
Nublado: Parcialmente nublado
Visibilidad: More than 10 km
detalles de la nube: Parcialmente nublado 3900 ft
EBLG 201920Z 11008KT 9999 BKN039 03/M02 Q1005 NOSIG
EBCV - Mons/Bergen
Actualización: 20-11-2018 20:25
Nublado  
Nublado  
   Viento: East 9.3 km/h
Viento: East 9.3 km/h
Temperatura: 3°C
Térmica: 1°C
Punto de rocío: -1°C
Humedad: 75%
Baromètro: 1005 hPa
Nublado: Nublado
detalles de la nube: Nublado 3200 ft
EBCV 201925Z AUTO 08005KT //// OVC032/// 03/M01 Q1005 BLU
EHBK - Maastricht
Actualización: 20-11-2018 20:25
Parcialmente Nublado  
Parcialmente Nublado  
   Viento: ESE 25.9 km/h
Viento: ESE 25.9 km/h
Temperatura: 3°C
Térmica: -2°C
Punto de rocío: -1°C
Humedad: 75%
Baromètro: 1006 hPa
Nublado: Parcialmente Nublado
Visibilidad: More than 10 km
detalles de la nube: Parcialmente Nublado
EHBK 201925Z AUTO 11014KT 080V150 9999 NSC 03/M01 Q1006 NOSIG
ELLX - Luxemburg
Actualización: 20-11-2018 20:20
Parcialmente Nublado  
Parcialmente Nublado  
   Viento: ESE 16.7 km/h
Viento: ESE 16.7 km/h
Temperatura: 1°C
Térmica: -3°C
Punto de rocío: -1°C
Humedad: 87%
Baromètro: 1005 hPa
Nublado: Parcialmente Nublado
Visibilidad: More than 10 km
detalles de la nube: Parcialmente Nublado 6900 ft
ELLX 201920Z AUTO 11009KT 9999 SCT069/// 01/M01 Q1005 NOSIG
EBOS - Oostende
Actualización: 20-11-2018 20:20
Parcialmente nublado  
Parcialmente nublado  
   Viento: East 16.7 km/h
Viento: East 16.7 km/h
Temperatura: 3°C
Térmica: -1°C
Punto de rocío: 0°C
Humedad: 81%
Baromètro: 1006 hPa
Nublado: Parcialmente nublado
Visibilidad: More than 10 km
detalles de la nube: Nubes dispersas 1800 ft,
Parcialmente nublado 4800 ft
EBOS 201920Z 08009KT 9999 FEW018 BKN048 03/M00 Q1006 NOSIG

Guión original por  Saratoga-weather.org Adaptado para la plantilla por  Weerstation Leuven

Usted encontrará nuestra información del tiempo también en:

Weather Underground

Iberian Peninsula Weather Network